createdAt,value
2018-05-29T00:00:28.648Z,51.75
2018-05-29T00:01:38.596Z,51.55
2018-05-29T00:02:47.743Z,51.45
2018-05-29T00:03:56.909Z,51.45
2018-05-29T00:05:06.074Z,51.75
2018-05-29T00:06:15.773Z,51.55
2018-05-29T00:07:25.203Z,51.45
2018-05-29T00:08:34.881Z,51.84
2018-05-29T00:09:44.556Z,51.65
2018-05-29T00:10:53.706Z,51.55
2018-05-29T00:12:03.404Z,51.84
2018-05-29T00:13:12.337Z,51.55
2018-05-29T00:14:21.502Z,51.65
2018-05-29T00:15:30.653Z,51.75
2018-05-29T00:16:40.071Z,51.55
2018-05-29T00:17:49.483Z,51.75
2018-05-29T00:18:59.164Z,51.75
2018-05-29T00:20:08.611Z,51.75
2018-05-29T00:21:17.517Z,51.55
2018-05-29T00:22:26.503Z,51.65
2018-05-29T00:23:35.404Z,51.75
2018-05-29T00:24:45.082Z,51.84
2018-05-29T00:25:55.020Z,52.23
2018-05-29T00:27:04.451Z,51.93
2018-05-29T00:28:14.130Z,52.03
2018-05-29T00:29:23.557Z,52.33
2018-05-29T00:30:33.244Z,51.93
2018-05-29T00:31:43.185Z,52.13
2018-05-29T00:32:52.351Z,52.23
2018-05-29T00:34:01.511Z,52.23
2018-05-29T00:35:10.963Z,52.23
2018-05-29T00:36:20.635Z,52.13
2018-05-29T00:37:30.323Z,52.03
2018-05-29T00:38:39.994Z,52.03
2018-05-29T00:39:49.947Z,52.13
2018-05-29T00:40:59.376Z,52.13
2018-05-29T00:42:08.564Z,52.23
2018-05-29T00:43:18.007Z,52.13
2018-05-29T00:44:27.424Z,52.13
2018-05-29T00:45:36.847Z,52.03
2018-05-29T00:46:46.534Z,52.13
2018-05-29T00:47:56.472Z,52.03
2018-05-29T00:49:05.901Z,52.03
2018-05-29T00:50:15.608Z,52.03
2018-05-29T00:51:25.277Z,52.23
2018-05-29T00:52:34.179Z,52.23
2018-05-29T00:53:43.589Z,52.23
2018-05-29T00:54:53.267Z,52.03
2018-05-29T00:56:02.764Z,52.33
2018-05-29T00:57:11.932Z,52.03
2018-05-29T00:58:21.345Z,52.13
2018-05-29T00:59:30.754Z,52.23
2018-05-29T01:00:40.427Z,52.03
2018-05-29T01:01:49.598Z,52.23
2018-05-29T01:02:59.290Z,52.13
2018-05-29T01:04:08.461Z,52.03
2018-05-29T01:05:18.170Z,52.13
2018-05-29T01:06:27.343Z,52.13
2018-05-29T01:07:36.785Z,52.23
2018-05-29T01:08:45.698Z,52.23
2018-05-29T01:09:54.851Z,52.03
2018-05-29T01:11:04.016Z,51.93
2018-05-29T01:12:13.176Z,52.13
2018-05-29T01:13:22.602Z,52.23
2018-05-29T01:14:32.284Z,52.03
2018-05-29T01:15:41.944Z,52.23
2018-05-29T01:16:51.357Z,51.93
2018-05-29T01:18:00.520Z,52.13
2018-05-29T01:19:10.490Z,52.13
2018-05-29T01:20:19.916Z,52.23
2018-05-29T01:21:29.344Z,52.03
2018-05-29T01:22:39.011Z,52.03
2018-05-29T01:23:47.927Z,52.23
2018-05-29T01:24:57.348Z,52.23
2018-05-29T01:26:06.817Z,51.84
2018-05-29T01:27:16.517Z,52.33
2018-05-29T01:28:25.677Z,52.13
2018-05-29T01:29:35.114Z,52.13
2018-05-29T01:30:44.813Z,52.03
2018-05-29T01:31:54.233Z,52.13
2018-05-29T01:33:03.420Z,52.33
2018-05-29T01:34:12.848Z,52.23
2018-05-29T01:35:22.270Z,51.93
2018-05-29T01:36:31.687Z,52.23
2018-05-29T01:37:41.103Z,51.84
2018-05-29T01:38:50.552Z,52.23
2018-05-29T01:39:59.200Z,52.03
2018-05-29T01:41:08.646Z,52.03
2018-05-29T01:42:18.070Z,52.13
2018-05-29T01:43:27.016Z,52.03
2018-05-29T01:44:36.181Z,52.13
2018-05-29T01:45:45.863Z,52.23
2018-05-29T01:46:55.542Z,52.23
2018-05-29T01:48:05.234Z,52.13
2018-05-29T01:49:14.672Z,51.93
2018-05-29T01:50:24.392Z,52.13
2018-05-29T01:51:33.560Z,52.03
2018-05-29T01:52:42.479Z,51.93
2018-05-29T01:53:51.904Z,52.23
2018-05-29T01:55:01.082Z,52.23
2018-05-29T01:56:10.557Z,52.03
2018-05-29T01:57:19.993Z,52.42
2018-05-29T01:58:29.413Z,52.3
2018-05-29T01:59:39.158Z,52.23
2018-05-29T02:00:48.874Z,52.03
2018-05-29T02:01:57.774Z,52.3
2018-05-29T02:03:06.691Z,52.13
2018-05-29T02:04:16.482Z,52.42
2018-05-29T02:05:26.366Z,52.4
2018-05-29T02:06:35.515Z,52.33
2018-05-29T02:07:44.682Z,52.3
2018-05-29T02:08:53.845Z,52.13
2018-05-29T02:10:03.037Z,52.33
2018-05-29T02:11:12.462Z,52.4
2018-05-29T02:12:21.379Z,52.4
2018-05-29T02:13:30.810Z,52.3
2018-05-29T02:14:40.235Z,52.59
2018-05-29T02:15:49.915Z,52.42
2018-05-29T02:16:59.379Z,52.4
2018-05-29T02:18:08.815Z,52.4
2018-05-29T02:19:18.003Z,52.33
2018-05-29T02:20:27.693Z,52.42
2018-05-29T02:21:37.375Z,52.5
2018-05-29T02:22:46.798Z,52.4
2018-05-29T02:23:56.477Z,52.5
2018-05-29T02:25:05.649Z,52.3
2018-05-29T02:26:14.820Z,52.42
2018-05-29T02:27:23.772Z,52.23
2018-05-29T02:28:33.451Z,52.4
2018-05-29T02:29:42.354Z,52.59
2018-05-29T02:30:51.799Z,52.4
2018-05-29T02:32:00.977Z,52.2
2018-05-29T02:33:10.425Z,52.59
2018-05-29T02:34:19.851Z,52.42
2018-05-29T02:35:28.770Z,52.4
2018-05-29T02:36:38.272Z,52.4
2018-05-29T02:37:47.695Z,52.98
2018-05-29T02:38:57.407Z,52.59
2018-05-29T02:40:06.856Z,52.98
2018-05-29T02:41:16.825Z,52.88
2018-05-29T02:42:26.030Z,52.52
2018-05-29T02:43:35.986Z,52.88
2018-05-29T02:44:45.445Z,53
2018-05-29T02:45:54.905Z,52.59
2018-05-29T02:47:04.346Z,52.88
2018-05-29T02:48:13.569Z,52.59
2018-05-29T02:49:23.008Z,52.69
2018-05-29T02:50:32.426Z,52.69
2018-05-29T02:51:42.164Z,52.81
2018-05-29T02:52:51.859Z,52.69
2018-05-29T02:54:01.555Z,52.78
2018-05-29T02:55:10.981Z,52.59
2018-05-29T02:56:20.411Z,52.88
2018-05-29T02:57:30.166Z,52.88
2018-05-29T02:58:39.602Z,52.78
2018-05-29T02:59:48.767Z,53.17
2018-05-29T03:00:58.434Z,52.78
2018-05-29T03:02:08.136Z,52.69
2018-05-29T03:03:17.328Z,53.17
2018-05-29T03:04:27.181Z,52.88
2018-05-29T03:05:36.372Z,52.78
2018-05-29T03:06:45.537Z,52.98
2018-05-29T03:07:55.007Z,52.59
2018-05-29T03:09:04.815Z,52.98
2018-05-29T03:10:13.979Z,53.27
2018-05-29T03:11:23.209Z,52.78
2018-05-29T03:12:32.115Z,52.98
2018-05-29T03:13:41.542Z,52.88
2018-05-29T03:14:51.489Z,52.98
2018-05-29T03:16:00.904Z,52.98
2018-05-29T03:17:10.588Z,52.78
2018-05-29T03:18:20.257Z,52.78
2018-05-29T03:19:29.445Z,52.88
2018-05-29T03:20:39.152Z,52.88
2018-05-29T03:21:48.050Z,52.69
2018-05-29T03:22:57.726Z,52.78
2018-05-29T03:24:06.894Z,52.88
2018-05-29T03:25:16.076Z,52.88
2018-05-29T03:26:25.011Z,52.78
2018-05-29T03:27:34.216Z,52.88
2018-05-29T03:28:43.380Z,52.88
2018-05-29T03:29:53.330Z,52.98
2018-05-29T03:31:03.008Z,52.59
2018-05-29T03:32:12.427Z,53.08
2018-05-29T03:33:22.101Z,53.17
2018-05-29T03:34:31.709Z,53.17
2018-05-29T03:35:41.667Z,52.69
2018-05-29T03:36:51.333Z,52.78
2018-05-29T03:38:01.018Z,53.37
2018-05-29T03:39:10.227Z,53.08
2018-05-29T03:40:19.657Z,53.27
2018-05-29T03:41:28.598Z,53.75
2018-05-29T03:42:38.025Z,52.78
2018-05-29T03:43:47.702Z,53.66
2018-05-29T03:44:57.181Z,52.98
2018-05-29T03:46:06.621Z,53.08
2018-05-29T03:47:15.530Z,53.08
2018-05-29T03:48:24.446Z,53.66
2018-05-29T03:49:34.141Z,53.47
2018-05-29T03:50:43.552Z,53.08
2018-05-29T03:51:52.962Z,53.08
2018-05-29T03:53:02.367Z,53.37
2018-05-29T03:54:12.048Z,53.37
2018-05-29T03:55:21.735Z,53.08
2018-05-29T03:56:31.153Z,53.37
2018-05-29T03:57:40.815Z,53.17
2018-05-29T03:58:50.238Z,53.37
2018-05-29T03:59:59.660Z,53.47
2018-05-29T04:01:08.846Z,53.37
2018-05-29T04:02:18.026Z,53.37
2018-05-29T04:03:27.438Z,53.37
2018-05-29T04:04:37.128Z,53.37
2018-05-29T04:05:46.552Z,53.47
2018-05-29T04:06:56.926Z,53.17
2018-05-29T04:08:06.073Z,53.47
2018-05-29T04:09:15.284Z,53.37
2018-05-29T04:10:24.415Z,53.37
2018-05-29T04:11:34.121Z,53.37
2018-05-29T04:12:43.811Z,53.47
2018-05-29T04:13:52.967Z,53.56
2018-05-29T04:15:02.126Z,53.37
2018-05-29T04:16:11.318Z,53.27
2018-05-29T04:17:20.495Z,53.27
2018-05-29T04:18:30.155Z,53.27
2018-05-29T04:19:39.587Z,53.27
2018-05-29T04:20:49.006Z,53.37
2018-05-29T04:21:58.420Z,53.27
2018-05-29T04:23:07.838Z,53.27
2018-05-29T04:24:17.010Z,53.47
2018-05-29T04:25:26.438Z,53.17
2018-05-29T04:26:36.134Z,53.47
2018-05-29T04:27:45.037Z,53.37
2018-05-29T04:28:54.477Z,53.37
2018-05-29T04:30:04.672Z,53.37
2018-05-29T04:31:14.366Z,53.37
2018-05-29T04:32:24.041Z,53.66
2018-05-29T04:33:33.457Z,53.17
2018-05-29T04:34:42.889Z,53.17
2018-05-29T04:35:52.064Z,53.17
2018-05-29T04:37:01.736Z,53.27
2018-05-29T04:38:11.426Z,53.37
2018-05-29T04:39:20.862Z,53.37
2018-05-29T04:40:30.580Z,53.27
2018-05-29T04:41:40.002Z,53.37
2018-05-29T04:42:49.444Z,53.47
2018-05-29T04:43:58.880Z,53.37
2018-05-29T04:45:08.061Z,53.47
2018-05-29T04:46:17.761Z,53.56
2018-05-29T04:47:26.916Z,53.17
2018-05-29T04:48:36.111Z,53.27
2018-05-29T04:49:45.120Z,53.37
2018-05-29T04:50:54.879Z,53.66
2018-05-29T04:52:04.311Z,53.47
2018-05-29T04:53:13.986Z,53.56
2018-05-29T04:54:23.418Z,53.44
2018-05-29T04:55:32.834Z,53.47
2018-05-29T04:56:42.656Z,53.75
2018-05-29T04:57:51.565Z,53.75
2018-05-29T04:59:01.259Z,53.47
2018-05-29T05:00:10.674Z,53.73
2018-05-29T05:01:20.359Z,53.56
2018-05-29T05:02:29.870Z,53.44
2018-05-29T05:03:39.752Z,53.37
2018-05-29T05:04:49.202Z,53.37
2018-05-29T05:05:58.642Z,53.08
2018-05-29T05:07:08.335Z,53.17
2018-05-29T05:08:18.038Z,53.17
2018-05-29T05:09:26.690Z,53.37
2018-05-29T05:10:36.132Z,53.17
2018-05-29T05:11:45.345Z,53.37
2018-05-29T05:12:55.024Z,53.27
2018-05-29T05:14:04.187Z,53.17
2018-05-29T05:15:13.325Z,53.47
2018-05-29T05:16:22.237Z,53.47
2018-05-29T05:17:31.664Z,53.47
2018-05-29T05:18:41.104Z,53.37
2018-05-29T05:19:50.536Z,52.88
2018-05-29T05:20:59.704Z,53.27
2018-05-29T05:22:08.910Z,53.66
2018-05-29T05:23:18.373Z,53.85
2018-05-29T05:24:27.833Z,53.75
2018-05-29T05:25:37.286Z,53.37
2018-05-29T05:26:46.458Z,53.27
2018-05-29T05:27:55.612Z,52.69
2018-05-29T05:29:05.054Z,52.98
2018-05-29T05:30:14.511Z,53.27
2018-05-29T05:31:23.967Z,52.88
2018-05-29T05:32:33.167Z,52.69
2018-05-29T05:33:42.341Z,52.88
2018-05-29T05:34:51.782Z,52.88
2018-05-29T05:36:01.753Z,52.78
2018-05-29T05:37:11.445Z,52.88
2018-05-29T05:38:20.601Z,52.98
2018-05-29T05:39:30.545Z,52.78
2018-05-29T05:40:40.258Z,52.78
2018-05-29T05:41:49.435Z,52.78
2018-05-29T05:42:58.609Z,52.69
2018-05-29T05:44:08.031Z,53.17
2018-05-29T05:45:17.713Z,52.88
2018-05-29T05:46:26.901Z,53
2018-05-29T05:47:36.582Z,53
2018-05-29T05:48:46.063Z,52.88
2018-05-29T05:49:55.484Z,53.08
2018-05-29T05:51:04.659Z,53.08
2018-05-29T05:52:13.565Z,53.17
2018-05-29T05:53:22.993Z,52.78
2018-05-29T05:54:32.410Z,52.4
2018-05-29T05:55:42.095Z,52.69
2018-05-29T05:56:51.262Z,52.72
2018-05-29T05:58:00.419Z,52.81
2018-05-29T05:59:09.322Z,52.88
2018-05-29T06:00:18.996Z,52.62
2018-05-29T06:01:28.715Z,52.72
2018-05-29T06:02:38.132Z,52.72
2018-05-29T06:03:47.556Z,52.72
2018-05-29T06:04:56.969Z,52.72
2018-05-29T06:06:06.665Z,52.62
2018-05-29T06:07:15.883Z,52.81
2018-05-29T06:08:25.563Z,52.91
2018-05-29T06:09:34.459Z,52.81
2018-05-29T06:10:43.703Z,52.91
2018-05-29T06:11:52.881Z,52.62
2018-05-29T06:13:02.309Z,52.91
2018-05-29T06:14:11.995Z,52.81
2018-05-29T06:15:21.951Z,52.62
2018-05-29T06:16:31.377Z,52.81
2018-05-29T06:17:41.107Z,52.81
2018-05-29T06:18:50.285Z,52.81
2018-05-29T06:19:59.715Z,52.81
2018-05-29T06:21:09.398Z,52.81
2018-05-29T06:22:19.084Z,52.72
2018-05-29T06:23:28.267Z,52.91
2018-05-29T06:24:37.692Z,52.72
2018-05-29T06:25:47.059Z,52.72
2018-05-29T06:26:56.519Z,52.62
2018-05-29T06:28:05.961Z,52.72
2018-05-29T06:29:15.637Z,52.72
2018-05-29T06:30:24.549Z,52.62
2018-05-29T06:31:34.809Z,52.91
2018-05-29T06:32:44.601Z,52.72
2018-05-29T06:33:53.797Z,52.72
2018-05-29T06:35:03.231Z,52.52
2018-05-29T06:36:12.428Z,52.72
2018-05-29T06:37:21.634Z,52.81
2018-05-29T06:38:31.593Z,52.81
2018-05-29T06:39:41.321Z,52.81
2018-05-29T06:40:50.500Z,52.81
2018-05-29T06:41:59.413Z,52.81
2018-05-29T06:43:08.343Z,52.72
2018-05-29T06:44:17.525Z,52.52
2018-05-29T06:45:27.225Z,52.91
2018-05-29T06:46:36.915Z,52.91
2018-05-29T06:47:46.091Z,52.81
2018-05-29T06:48:54.983Z,52.72
2018-05-29T06:50:04.159Z,52.62
2018-05-29T06:51:13.049Z,52.72
2018-05-29T06:52:21.699Z,52.72
2018-05-29T06:53:31.383Z,52.81
2018-05-29T06:54:40.791Z,52.81
2018-05-29T06:55:50.790Z,52.81
2018-05-29T06:57:00.212Z,52.91
2018-05-29T06:58:09.388Z,52.72
2018-05-29T06:59:18.545Z,52.72
2018-05-29T07:00:27.227Z,52.72
2018-05-29T07:01:36.637Z,52.81
2018-05-29T07:02:46.065Z,52.81
2018-05-29T07:03:55.101Z,52.72
2018-05-29T07:05:04.708Z,52.81
2018-05-29T07:06:13.602Z,52.91
2018-05-29T07:07:22.511Z,52.72
2018-05-29T07:08:32.184Z,52.72
2018-05-29T07:09:41.357Z,52.81
2018-05-29T07:10:51.296Z,52.72
2018-05-29T07:12:00.781Z,52.81
2018-05-29T07:13:10.207Z,53.32
2018-05-29T07:14:19.620Z,53.22
2018-05-29T07:15:29.564Z,53.2
2018-05-29T07:16:38.476Z,52.91
2018-05-29T07:17:48.155Z,52.84
2018-05-29T07:18:57.308Z,53.03
2018-05-29T07:20:06.473Z,52.81
2018-05-29T07:21:15.899Z,52.84
2018-05-29T07:22:25.309Z,52.81
2018-05-29T07:23:34.206Z,53
2018-05-29T07:24:43.393Z,53
2018-05-29T07:25:53.103Z,52.72
2018-05-29T07:27:02.280Z,52.91
2018-05-29T07:28:11.451Z,52.91
2018-05-29T07:29:21.137Z,53
2018-05-29T07:30:30.560Z,52.81
2018-05-29T07:31:39.723Z,52.81
2018-05-29T07:32:48.885Z,52.91
2018-05-29T07:33:58.300Z,52.91
2018-05-29T07:35:07.235Z,52.81
2018-05-29T07:36:16.398Z,52.81
2018-05-29T07:37:26.080Z,52.72
2018-05-29T07:38:35.500Z,53.1
2018-05-29T07:39:45.253Z,52.64
2018-05-29T07:40:55.293Z,53.2
2018-05-29T07:42:04.985Z,52.62
2018-05-29T07:43:14.423Z,52.81
2018-05-29T07:44:24.111Z,52.62
2018-05-29T07:45:33.532Z,52.52
2018-05-29T07:46:42.704Z,53.2
2018-05-29T07:47:52.418Z,52.62
2018-05-29T07:49:01.308Z,53.2
2018-05-29T07:50:10.731Z,53.3
2018-05-29T07:51:19.909Z,52.81
2018-05-29T07:52:29.611Z,53.2
2018-05-29T07:53:39.020Z,53.3
2018-05-29T07:54:48.517Z,52.81
2018-05-29T07:55:57.946Z,53.22
2018-05-29T07:57:07.116Z,52.62
2018-05-29T07:58:16.553Z,53.2
2018-05-29T07:59:25.976Z,53.2
2018-05-29T08:00:35.671Z,53.3
2018-05-29T08:01:45.107Z,52.62
2018-05-29T08:02:54.523Z,53.78
2018-05-29T08:04:03.697Z,52.62
2018-05-29T08:05:12.634Z,52.91
2018-05-29T08:06:22.617Z,53.39
2018-05-29T08:07:32.131Z,53.2
2018-05-29T08:08:41.845Z,53.3
2018-05-29T08:09:50.998Z,53.3
2018-05-29T08:11:00.672Z,53.39
2018-05-29T08:12:09.843Z,53.3
2018-05-29T08:13:19.555Z,53.3
2018-05-29T08:14:29.938Z,53.1
2018-05-29T08:15:39.614Z,53.78
2018-05-29T08:16:48.808Z,53.78
2018-05-29T08:17:58.229Z,52.62
2018-05-29T08:19:07.650Z,52.62
2018-05-29T08:20:17.320Z,53.59
2018-05-29T08:21:26.489Z,53.39
2018-05-29T08:22:36.181Z,52.91
2018-05-29T08:23:45.369Z,53.3
2018-05-29T08:24:55.079Z,52.81
2018-05-29T08:26:04.240Z,52.81
2018-05-29T08:27:13.894Z,53.78
2018-05-29T08:28:23.594Z,52.72
2018-05-29T08:29:33.013Z,53.2
2018-05-29T08:30:42.681Z,53.2
2018-05-29T08:31:52.110Z,52.81
2018-05-29T08:33:01.530Z,53.3
2018-05-29T08:34:10.968Z,53.22
2018-05-29T08:35:20.652Z,52.62
2018-05-29T08:36:30.060Z,52.81
2018-05-29T08:37:39.210Z,52.81
2018-05-29T08:38:48.891Z,52.72
2018-05-29T08:39:58.312Z,52.72
2018-05-29T08:41:07.225Z,52.81
2018-05-29T08:42:15.873Z,53.3
2018-05-29T08:43:25.560Z,52.62
2018-05-29T08:44:34.715Z,53.2
2018-05-29T08:45:43.378Z,52.62
2018-05-29T08:46:52.566Z,52.94
2018-05-29T08:48:01.994Z,53.2
2018-05-29T08:49:11.442Z,53.32
2018-05-29T08:50:20.850Z,52.72
2018-05-29T08:51:30.507Z,52.62
2018-05-29T08:52:39.668Z,53.59
2018-05-29T08:53:49.088Z,52.64
2018-05-29T08:54:58.245Z,53
2018-05-29T08:56:07.919Z,52.64
2018-05-29T08:57:17.635Z,53
2018-05-29T08:58:27.137Z,53.2
2018-05-29T08:59:36.582Z,52.62
2018-05-29T09:00:45.764Z,52.84
2018-05-29T09:01:55.712Z,52.72
2018-05-29T09:03:04.902Z,53.32
2018-05-29T09:04:14.621Z,53.03
2018-05-29T09:05:24.779Z,53
2018-05-29T09:06:34.447Z,53.1
2018-05-29T09:07:44.388Z,52.52
2018-05-29T09:08:53.855Z,52.74
2018-05-29T09:10:03.291Z,53.22
2018-05-29T09:11:12.719Z,53.22
2018-05-29T09:12:22.407Z,52.81
2018-05-29T09:13:31.837Z,53.2
2018-05-29T09:14:41.014Z,52.91
2018-05-29T09:15:50.442Z,52.72
2018-05-29T09:16:59.862Z,52.81
2018-05-29T09:18:08.775Z,52.91
2018-05-29T09:19:18.442Z,52.94
2018-05-29T09:20:27.916Z,52.91
2018-05-29T09:21:37.089Z,53.03
2018-05-29T09:22:46.261Z,52.74
2018-05-29T09:23:55.692Z,52.94
2018-05-29T09:25:05.165Z,53.03
2018-05-29T09:26:14.340Z,52.94
2018-05-29T09:27:24.029Z,52.94
2018-05-29T09:28:33.191Z,52.84
2018-05-29T09:29:43.012Z,52.94
2018-05-29T09:30:52.436Z,52.81
2018-05-29T09:32:01.817Z,52.94
2018-05-29T09:33:11.726Z,53
2018-05-29T09:34:21.151Z,53
2018-05-29T09:35:30.969Z,52.84
2018-05-29T09:36:40.611Z,52.91
2018-05-29T09:37:49.522Z,53.13
2018-05-29T09:38:58.991Z,53.03
2018-05-29T09:40:08.167Z,53
2018-05-29T09:41:17.897Z,52.94
2018-05-29T09:42:27.597Z,52.81
2018-05-29T09:43:37.026Z,52.94
2018-05-29T09:44:46.515Z,52.94
2018-05-29T09:45:55.938Z,52.84
2018-05-29T09:47:05.779Z,52.84
2018-05-29T09:48:15.600Z,52.84
2018-05-29T09:49:24.839Z,52.84
2018-05-29T09:50:33.756Z,52.84
2018-05-29T09:51:42.719Z,52.84
2018-05-29T09:52:52.284Z,53
2018-05-29T09:54:01.861Z,52.84
2018-05-29T09:55:11.060Z,53.22
2018-05-29T09:56:20.747Z,53.03
2018-05-29T09:57:29.935Z,53.03
2018-05-29T09:58:39.360Z,53.22
2018-05-29T09:59:48.770Z,53.03
2018-05-29T10:00:58.197Z,53.03
2018-05-29T10:02:07.894Z,53.03
2018-05-29T10:03:17.596Z,53.22
2018-05-29T10:04:26.520Z,53
2018-05-29T10:05:36.185Z,53.03
2018-05-29T10:06:45.871Z,53.03
2018-05-29T10:07:54.795Z,53.03
2018-05-29T10:09:03.978Z,53
2018-05-29T10:10:12.904Z,52.94
2018-05-29T10:11:23.258Z,53.03
2018-05-29T10:12:32.450Z,53.3
2018-05-29T10:13:42.117Z,53.13
2018-05-29T10:14:51.539Z,52.84
2018-05-29T10:16:01.217Z,52.91
2018-05-29T10:17:10.806Z,52.74
2018-05-29T10:18:19.709Z,53.32
2018-05-29T10:19:29.473Z,52.91
2018-05-29T10:20:38.742Z,53.22
2018-05-29T10:21:48.198Z,53.42
2018-05-29T10:22:57.353Z,52.84
2018-05-29T10:24:06.515Z,52.94
2018-05-29T10:25:15.959Z,52.94
2018-05-29T10:26:25.379Z,52.84
2018-05-29T10:27:34.799Z,52.84
2018-05-29T10:28:44.511Z,52.74
2018-05-29T10:29:53.670Z,52.74
2018-05-29T10:31:02.822Z,52.74
2018-05-29T10:32:12.244Z,52.72
2018-05-29T10:33:21.974Z,52.81
2018-05-29T10:34:31.155Z,52.81
2018-05-29T10:35:40.569Z,52.81
2018-05-29T10:36:50.011Z,53.03
2018-05-29T10:37:59.693Z,52.72
2018-05-29T10:39:08.861Z,52.64
2018-05-29T10:40:18.544Z,52.74
2018-05-29T10:41:28.475Z,52.84
2018-05-29T10:42:38.176Z,52.74
2018-05-29T10:43:47.082Z,52.84
2018-05-29T10:44:56.787Z,52.64
2018-05-29T10:46:06.263Z,52.62
2018-05-29T10:47:15.599Z,52.64
2018-05-29T10:48:24.762Z,52.62
2018-05-29T10:49:34.192Z,52.64
2018-05-29T10:50:43.357Z,52.74
2018-05-29T10:51:52.922Z,53.03
2018-05-29T10:53:02.076Z,52.81
2018-05-29T10:54:11.225Z,52.72
2018-05-29T10:55:20.658Z,52.74
2018-05-29T10:56:30.591Z,52.84
2018-05-29T10:57:40.276Z,52.94
2018-05-29T10:58:49.434Z,52.84
2018-05-29T10:59:58.849Z,53.03
2018-05-29T11:01:08.526Z,53.03
2018-05-29T11:02:17.935Z,53.03
2018-05-29T11:03:27.362Z,53.03
2018-05-29T11:04:36.818Z,53.03
2018-05-29T11:05:46.252Z,52.84
2018-05-29T11:06:55.753Z,52.94
2018-05-29T11:08:05.560Z,52.94
2018-05-29T11:09:14.967Z,52.94
2018-05-29T11:10:24.903Z,52.94
2018-05-29T11:11:34.075Z,52.94
2018-05-29T11:12:43.753Z,52.55
2018-05-29T11:13:53.439Z,53.13
2018-05-29T11:15:02.599Z,53.13
2018-05-29T11:16:12.271Z,53.13
2018-05-29T11:17:21.774Z,53.1
2018-05-29T11:18:31.442Z,52.94
2018-05-29T11:19:40.890Z,52.45
2018-05-29T11:20:50.310Z,53.03
2018-05-29T11:21:59.477Z,53
2018-05-29T11:23:08.889Z,52.42
2018-05-29T11:24:18.059Z,52.45
2018-05-29T11:25:27.233Z,52.45
2018-05-29T11:26:36.912Z,52.84
2018-05-29T11:27:45.805Z,52.64
2018-05-29T11:28:55.228Z,52.55
2018-05-29T11:30:04.683Z,52.45
2018-05-29T11:31:14.415Z,52.55
2018-05-29T11:32:24.260Z,52.45
2018-05-29T11:33:33.951Z,52.42
2018-05-29T11:34:43.633Z,52.45
2018-05-29T11:35:53.359Z,52.35
2018-05-29T11:37:02.527Z,52.23
2018-05-29T11:38:11.980Z,52.35
2018-05-29T11:39:21.196Z,52.45
2018-05-29T11:40:30.633Z,52.35
2018-05-29T11:41:39.523Z,52.35
2018-05-29T11:42:48.953Z,52.64
2018-05-29T11:43:58.374Z,52.35
2018-05-29T11:45:07.281Z,52.35
2018-05-29T11:46:16.707Z,52.35
2018-05-29T11:47:26.143Z,52.45
2018-05-29T11:48:35.699Z,52.42
2018-05-29T11:49:45.269Z,52.35
2018-05-29T11:50:54.942Z,52.45
2018-05-29T11:52:04.105Z,52.42
2018-05-29T11:53:13.547Z,52.45
2018-05-29T11:54:23.212Z,52.25
2018-05-29T11:55:33.160Z,52.25
2018-05-29T11:56:42.840Z,52.15
2018-05-29T11:57:52.019Z,52.06
2018-05-29T11:59:01.445Z,52.35
2018-05-29T12:00:11.130Z,52.35
2018-05-29T12:01:20.820Z,52.33
2018-05-29T12:02:30.285Z,52.25
2018-05-29T12:03:39.705Z,52.35
2018-05-29T12:04:49.196Z,52.35
2018-05-29T12:05:58.912Z,52.35
2018-05-29T12:07:08.607Z,52.25
2018-05-29T12:08:18.035Z,51.97
2018-05-29T12:09:28.014Z,52.06
2018-05-29T12:10:37.706Z,51.97
2018-05-29T12:11:47.381Z,52.13
2018-05-29T12:12:56.783Z,52.06
2018-05-29T12:14:05.829Z,52.06
2018-05-29T12:15:15.007Z,52.15
2018-05-29T12:16:24.430Z,52.15
2018-05-29T12:17:34.125Z,52.23
2018-05-29T12:18:44.295Z,52.25
2018-05-29T12:19:53.992Z,52.35
2018-05-29T12:21:03.681Z,52.15
2018-05-29T12:22:12.844Z,52.13
2018-05-29T12:23:22.020Z,52.15
2018-05-29T12:24:31.947Z,52.35
2018-05-29T12:25:41.368Z,52.35
2018-05-29T12:26:50.281Z,52.33
2018-05-29T12:27:59.975Z,52.35
2018-05-29T12:29:09.649Z,52.06
2018-05-29T12:30:19.331Z,51.67
2018-05-29T12:31:28.240Z,51.93
2018-05-29T12:32:37.420Z,52.06
2018-05-29T12:33:47.371Z,51.97
2018-05-29T12:34:56.271Z,51.87
2018-05-29T12:36:05.748Z,51.97
2018-05-29T12:37:15.451Z,51.87
2018-05-29T12:38:25.146Z,51.77
2018-05-29T12:39:34.366Z,52.03
2018-05-29T12:40:43.540Z,52.06
2018-05-29T12:41:53.241Z,52.06
2018-05-29T12:43:02.737Z,52.06
2018-05-29T12:44:11.927Z,52.06
2018-05-29T12:45:21.582Z,51.87
2018-05-29T12:46:31.015Z,52.25
2018-05-29T12:47:40.701Z,52.25
2018-05-29T12:48:50.143Z,52.23
2018-05-29T12:50:00.264Z,52.35
2018-05-29T12:51:09.189Z,52.25
2018-05-29T12:52:18.356Z,52.25
2018-05-29T12:53:27.783Z,52.25
2018-05-29T12:54:37.288Z,52.25
2018-05-29T12:55:46.970Z,52.15
2018-05-29T12:56:57.064Z,52.15
2018-05-29T12:58:06.521Z,52.35
2018-05-29T12:59:15.945Z,52.15
2018-05-29T13:00:25.652Z,52.25
2018-05-29T13:01:35.108Z,52.35
2018-05-29T13:02:45.080Z,52.23
2018-05-29T13:03:54.248Z,52.15
2018-05-29T13:05:04.236Z,52.25
2018-05-29T13:06:13.919Z,52.25
2018-05-29T13:07:23.329Z,52.06
2018-05-29T13:08:32.498Z,52.06
2018-05-29T13:09:41.403Z,52.06
2018-05-29T13:10:50.836Z,52.06
2018-05-29T13:12:00.554Z,52.06
2018-05-29T13:13:10.256Z,52.15
2018-05-29T13:14:18.912Z,52.15
2018-05-29T13:15:28.116Z,52.15
2018-05-29T13:16:37.864Z,52.06
2018-05-29T13:17:47.689Z,52.06
2018-05-29T13:18:57.375Z,52.06
2018-05-29T13:20:06.540Z,52.15
2018-05-29T13:21:15.960Z,52.06
2018-05-29T13:22:25.110Z,52.15
2018-05-29T13:23:34.599Z,51.97
2018-05-29T13:24:44.028Z,52.15
2018-05-29T13:25:53.966Z,52.06
2018-05-29T13:27:03.708Z,52.06
2018-05-29T13:28:13.521Z,52.06
2018-05-29T13:29:22.960Z,51.97
2018-05-29T13:30:32.660Z,52.06
2018-05-29T13:31:42.598Z,52.15
2018-05-29T13:32:52.266Z,52.25
2018-05-29T13:34:01.733Z,51.87
2018-05-29T13:35:10.963Z,52.15
2018-05-29T13:36:20.819Z,51.97
2018-05-29T13:37:30.760Z,52.25
2018-05-29T13:38:40.194Z,51.97
2018-05-29T13:39:49.907Z,51.97
2018-05-29T13:40:59.617Z,52.06
2018-05-29T13:42:08.781Z,52.15
2018-05-29T13:43:18.439Z,52.15
2018-05-29T13:44:27.896Z,52.06
2018-05-29T13:45:37.334Z,52.15
2018-05-29T13:46:47.003Z,52.15
2018-05-29T13:47:56.150Z,52.15
2018-05-29T13:49:05.624Z,52.15
2018-05-29T13:50:15.809Z,52.15
2018-05-29T13:51:25.469Z,52.06
2018-05-29T13:52:34.909Z,52.15
2018-05-29T13:53:44.343Z,52.15
2018-05-29T13:54:54.285Z,52.06
2018-05-29T13:56:03.732Z,52.15
2018-05-29T13:57:13.143Z,52.15
2018-05-29T13:58:22.843Z,52.15
2018-05-29T13:59:32.528Z,52.15
2018-05-29T14:00:41.959Z,52.15
2018-05-29T14:01:51.161Z,52.15
2018-05-29T14:03:00.612Z,52.25
2018-05-29T14:04:10.576Z,52.06
2018-05-29T14:05:19.994Z,52.15
2018-05-29T14:06:29.174Z,52.15
2018-05-29T14:07:38.837Z,52.15
2018-05-29T14:08:48.510Z,52.15
2018-05-29T14:09:57.939Z,52.15
2018-05-29T14:11:07.109Z,52.15
2018-05-29T14:12:16.282Z,52.15
2018-05-29T14:13:25.444Z,52.15
2018-05-29T14:14:34.359Z,51.97
2018-05-29T14:15:44.301Z,51.97
2018-05-29T14:16:53.456Z,52.06
2018-05-29T14:18:02.866Z,52.15
2018-05-29T14:19:12.811Z,51.97
2018-05-29T14:20:21.977Z,52.15
2018-05-29T14:21:31.393Z,51.97
2018-05-29T14:22:41.099Z,52.06
2018-05-29T14:23:50.584Z,51.97
2018-05-29T14:25:00.019Z,52.25
2018-05-29T14:26:09.447Z,52.15
2018-05-29T14:27:19.125Z,52.06
2018-05-29T14:28:28.544Z,52.15
2018-05-29T14:29:37.957Z,52.25
2018-05-29T14:30:47.659Z,52.25
2018-05-29T14:31:57.395Z,52.25
2018-05-29T14:33:06.541Z,52.15
2018-05-29T14:34:16.477Z,52.06
2018-05-29T14:35:25.902Z,52.15
2018-05-29T14:36:35.058Z,52.06
2018-05-29T14:37:43.957Z,52.15
2018-05-29T14:38:53.619Z,51.48
2018-05-29T14:40:03.371Z,51.97
2018-05-29T14:41:13.041Z,51.97
2018-05-29T14:42:22.194Z,51.67
2018-05-29T14:43:31.865Z,51.75
2018-05-29T14:44:41.355Z,51.84
2018-05-29T14:45:50.777Z,51.87
2018-05-29T14:47:00.197Z,51.87
2018-05-29T14:48:09.098Z,52.06
2018-05-29T14:49:19.298Z,51.67
2018-05-29T14:50:28.723Z,51.87
2018-05-29T14:51:38.139Z,51.77
2018-05-29T14:52:47.093Z,51.67
2018-05-29T14:53:55.999Z,51.57
2018-05-29T14:55:05.479Z,51.97
2018-05-29T14:56:14.646Z,51.77
2018-05-29T14:57:24.490Z,51.57